METAR AND TAF INFORMATION
METAR FOR EDDP
ADDS - METARS form results

(0205 UTC 25 June 2019)
Data provider http://aviationweather.gov/metar/data/
 
METAR text: EDDP 250150Z 13008KT 070V170 CAVOK 19/12 Q1022 NOSIG
Conditions at: EDDP (LEIPZIG/SCHKEUDI, DE) observed 0150 UTC 25 June 2019
Temperature: 19.0°C (66°F)
Dewpoint: 12.0°C (54°F) [RH = 64%]
Pressure (altimeter): 30.18 inches Hg (1022.0 mb)
Winds: from the SE (130 degrees) at 9 MPH (8 knots; 4.1 m/s)
Visibility: 6 or more miles (10+ km)
Ceiling: ceiling and visibility are OK
Clouds: unknown
Weather: no significant weather observed at this time

METAR text: EDDP 250120Z 14008KT CAVOK 20/12 Q1022 NOSIG
Conditions at: EDDP (LEIPZIG/SCHKEUDI, DE) observed 0120 UTC 25 June 2019
Temperature: 20.0°C (68°F)
Dewpoint: 12.0°C (54°F) [RH = 60%]
Pressure (altimeter): 30.18 inches Hg (1022.0 mb)
Winds: from the SE (140 degrees) at 9 MPH (8 knots; 4.1 m/s)
Visibility: 6 or more miles (10+ km)
Ceiling: ceiling and visibility are OK
Clouds: unknown
Weather: no significant weather observed at this time

Forecast for: EDDP (LEIPZIG/SCHKEUDI, DE)
Text: TAF EDDP 242300Z 2500/2524 12008KT CAVOK
Forecast period: 0000 UTC 25 June 2019 to 0000 UTC 26 June 2019
Forecast type: FROM: standard forecast or significant change
Winds: from the ESE (120 degrees) at 9 MPH (8 knots; 4.1 m/s)
Visibility: 6 or more miles 10+ km)
Ceiling: unknown
Clouds: missing
Weather: NSW  (no significant weather)

 AIRPORT MAP

 RUNWAY INFORMATION
Runway 08L Runway length 11811 ft Runway width 148 ft
Runway elevation 418 ft Runway displaced threshold 0 ft Runway heading 86
Runway 26R Runway length 11811 ft Runway width 148 ft
Runway elevation 448 ft Runway displaced threshold 0 ft Runway heading 266
Runway 08R Runway length 11811 ft Runway width 198 ft
Runway elevation 0 ft Runway displaced threshold 0 ft Runway heading 86
Runway 26L Runway length 11811 ft Runway width 198 ft
Runway elevation 0 ft Runway displaced threshold 0 ft Runway heading 266

 AIRPORT FREQUENCIES
Type APP Name MUNCHEN RA Frequency 124.175 MHZ
Type ATIS Name ATIS Frequency 123.95 MHZ
Type GND Name GND Frequency 121.8 MHZ
Type INFO Name MUNCHEN IN Frequency 125.8 MHZ
Type TWR Name TWR Frequency 121.1 MHZ

 AIRPORT NEAR NAVIGATION AIDS
Type DME Name Leipzig South Frequency 112150 KHZ
Type VOR-DME Name Leipzig Frequency 115850 KHZ
Type DME Name Leipzig North Frequency 113500 KHZ
Type NDB Name Leipzig Frequency 357 KHZ
Type NDB Name Leipzig Frequency 434 KHZ
Type NDB Name Leipzig Frequency 340 KHZ



Datenschutz / Privacy Policy  •  Impressum / Imprint  •  Disclaimer

Powered by Virtual Airlines Manager [v2.6.2]